createdAt,value
2017-10-31T12:27:54.757Z,71.13
2017-10-31T12:28:57.307Z,71.45
2017-10-31T12:30:00.057Z,71.26
2017-10-31T12:31:01.640Z,70.65
2017-10-31T12:32:04.379Z,70.75
2017-10-31T12:33:07.345Z,71.42
2017-10-31T12:34:09.731Z,72.53
2017-10-31T12:35:12.928Z,72.91
2017-10-31T12:36:15.759Z,73.63
2017-10-31T12:37:18.577Z,74.30
2017-10-31T12:38:21.589Z,75.07
2017-10-31T12:39:24.610Z,75.79
2017-10-31T12:40:27.497Z,75.89
2017-10-31T12:41:30.284Z,76.46
2017-10-31T12:42:33.109Z,77.38
2017-10-31T12:43:36.979Z,77.28
2017-10-31T12:44:39.846Z,77.57
2017-10-31T12:45:42.727Z,77.57
2017-10-31T12:46:45.501Z,78.43
2017-10-31T12:47:47.874Z,78.43
2017-10-31T12:48:51.189Z,78.52
2017-10-31T12:49:54.204Z,79.44
2017-10-31T12:50:57.006Z,78.86
2017-10-31T12:52:00.046Z,79.35
2017-10-31T12:53:02.831Z,79.72
2017-10-31T12:54:05.710Z,79.72
2017-10-31T12:55:08.482Z,80.58
2017-10-31T12:56:11.373Z,80.77
2017-10-31T12:57:14.568Z,81.44
2017-10-31T12:58:17.369Z,81.54
2017-10-31T12:59:20.213Z,82.17
2017-10-31T13:00:23.062Z,82.11
2017-10-31T13:01:25.149Z,81.78
2017-10-31T13:02:28.040Z,81.78
2017-10-31T13:03:30.847Z,82.07
2017-10-31T13:04:33.594Z,81.88
2017-10-31T13:05:36.381Z,81.97
2017-10-31T13:06:39.331Z,82.54
2017-10-31T13:07:42.147Z,82.26
2017-10-31T13:08:45.009Z,82.64
2017-10-31T13:09:47.739Z,82.35
2017-10-31T13:10:50.528Z,81.97
2017-10-31T13:11:53.269Z,81.78
2017-10-31T13:12:56.376Z,82.07
2017-10-31T13:13:58.924Z,81.78
2017-10-31T13:15:02.061Z,81.97
2017-10-31T13:16:04.977Z,82.73
2017-10-31T13:17:07.773Z,82.35
2017-10-31T13:18:09.769Z,82.26
2017-10-31T13:19:12.593Z,82.83
2017-10-31T13:20:15.383Z,82.45
2017-10-31T13:21:18.837Z,82.83
2017-10-31T13:22:21.601Z,82.35
2017-10-31T13:23:25.891Z,82.45
2017-10-31T13:24:30.110Z,82.45
2017-10-31T13:25:33.067Z,82.26
2017-10-31T13:26:36.034Z,81.78
2017-10-31T13:27:39.461Z,81.49
2017-10-31T13:28:42.305Z,81.88
2017-10-31T13:29:45.043Z,81.68
2017-10-31T13:30:47.681Z,81.49
2017-10-31T13:31:50.336Z,81.40
2017-10-31T13:32:53.153Z,81.40
2017-10-31T13:33:56.197Z,81.59
2017-10-31T13:34:58.873Z,81.02
2017-10-31T13:36:00.461Z,80.73
2017-10-31T13:37:03.319Z,80.92
2017-10-31T13:38:06.194Z,80.92
2017-10-31T13:39:09.732Z,81.02
2017-10-31T13:40:12.556Z,81.49
2017-10-31T13:41:15.336Z,81.21
2017-10-31T13:42:18.105Z,81.30
2017-10-31T13:43:20.881Z,81.49
2017-10-31T13:44:23.694Z,81.49
2017-10-31T13:45:26.502Z,81.88
2017-10-31T13:46:29.651Z,81.88
2017-10-31T13:47:32.393Z,81.78
2017-10-31T13:48:35.199Z,82.07
2017-10-31T13:49:38.647Z,82.26
2017-10-31T13:50:41.817Z,82.26
2017-10-31T13:51:45.042Z,82.07
2017-10-31T13:52:47.314Z,82.64
2017-10-31T13:53:50.462Z,82.73
2017-10-31T13:54:53.446Z,82.54
2017-10-31T13:55:56.342Z,82.45
2017-10-31T13:56:59.130Z,82.92
2017-10-31T13:58:01.953Z,82.83
2017-10-31T13:59:04.871Z,82.83
2017-10-31T14:00:08.737Z,83.59
2017-10-31T14:01:11.323Z,83.84
2017-10-31T14:02:14.189Z,83.65
2017-10-31T14:03:17.047Z,83.78
2017-10-31T14:04:19.972Z,84.22
2017-10-31T14:05:22.704Z,84.26
2017-10-31T14:06:25.810Z,84.60
2017-10-31T14:07:28.580Z,84.50
2017-10-31T14:08:31.652Z,84.41
2017-10-31T14:09:34.505Z,84.60
2017-10-31T14:10:37.280Z,84.60
2017-10-31T14:11:40.396Z,84.41
2017-10-31T14:12:43.442Z,84.69
2017-10-31T14:13:47.502Z,84.69
2017-10-31T14:14:49.656Z,84.60
2017-10-31T14:15:52.404Z,85.17
2017-10-31T14:16:55.540Z,85.84
2017-10-31T14:17:58.372Z,85.55
2017-10-31T14:19:01.125Z,85.74
2017-10-31T14:20:04.317Z,85.64
2017-10-31T14:21:07.212Z,85.64
2017-10-31T14:22:09.977Z,85.64
2017-10-31T14:23:12.742Z,85.74
2017-10-31T14:24:15.541Z,85.74
2017-10-31T14:25:18.349Z,85.84
2017-10-31T14:26:21.282Z,85.64
2017-10-31T14:27:24.144Z,86.03
